Fulton, Missouri
Current Conditions -  °F | °C
As of 1:54 AM on Saturday 29 Nov 2014 (Local Time) from KCOU Reporting Station
Clear Clear  
Wind Chill: 39°   Ceiling: Unl
Heat Index: 45°   Visibility: 10mi
Dew Point: 37°   Wind: 12mph
Humidity: 74%   Direction: 170°S
Pressure: 29.76"   Gusts: NA
Location:  38.85°N, 91.95°W
Report Text: KCOU 290754Z AUTO 17010KT 10SM CLR 07/03 A2976 RMK AO2 SLP077 T00720028
Loading
Personal Weather Stations






























Interactive Weather Map New forecast layout! Learn more

10-Day Weather Forecast

Advertisements
Track Severe Weather on mobile